Time;durP1;ratioP1;P1;durP2;ratioP2;P2;SDS_P1;SDS_P2;PMS_P1;PMS_P2;Temp;Humidity;BMP_temperature;BMP_pressure;BME280_temperature;BME280_humidity;BME280_pressure;Samples;Min_cycle;Max_cycle;Signal;HPM_P1;HPM_P2
2023/02/22 00:01:34;;;;;;;17.65;13.02;;;;;;;;;;10365971;28;20022;-64
2023/02/22 00:06:34;;;;;;;16.80;12.65;;;;;;;;;;10371303;28;20115;-64
2023/02/22 00:11:37;;;;;;;16.63;12.52;;;;;;;;;;10373426;28;20100;-65
2023/02/22 00:16:37;;;;;;;18.75;12.63;;;;;;;;;;10373500;28;20025;-66
2023/02/22 00:21:38;;;;;;;19.83;12.75;;;;;;;;;;10373239;28;20508;-67
2023/02/22 00:26:39;;;;;;;20.85;12.57;;;;;;;;;;10372992;28;20486;-67
2023/02/22 00:31:39;;;;;;;15.25;11.88;;;;;;;;;;10363970;28;20492;-66
2023/02/22 00:36:47;;;;;;;14.55;11.98;;;;;;;;;;10372661;28;20050;-67
2023/02/22 00:41:48;;;;;;;18.85;12.50;;;;;;;;;;10360912;28;20025;-67
2023/02/22 00:46:49;;;;;;;17.17;12.18;;;;;;;;;;10372185;28;20087;-66
2023/02/22 00:51:49;;;;;;;13.27;10.98;;;;;;;;;;10372013;28;20425;-67
2023/02/22 00:56:50;;;;;;;14.65;10.85;;;;;;;;;;10370676;28;20366;-65
2023/02/22 01:01:51;;;;;;;18.25;11.77;;;;;;;;;;10371766;28;20038;-65
2023/02/22 01:06:52;;;;;;;15.73;11.63;;;;;;;;;;10371564;28;20030;-65
2023/02/22 01:11:54;;;;;;;15.77;11.70;;;;;;;;;;10371275;28;20014;-65
2023/02/22 01:16:56;;;;;;;15.82;11.90;;;;;;;;;;10370401;28;20105;-66
2023/02/22 01:21:57;;;;;;;13.85;11.43;;;;;;;;;;10370984;28;20054;-64
2023/02/22 01:26:58;;;;;;;17.85;11.15;;;;;;;;;;10370475;28;20029;-65
2023/02/22 01:32:00;;;;;;;14.68;10.98;;;;;;;;;;10365048;28;20397;-64
2023/02/22 01:37:01;;;;;;;14.48;11.00;;;;;;;;;;10370183;28;20081;-64
2023/02/22 01:42:01;;;;;;;12.38;10.30;;;;;;;;;;10370268;28;20469;-66
2023/02/22 01:47:05;;;;;;;16.92;11.40;;;;;;;;;;10368887;28;20036;-65
2023/02/22 01:52:10;;;;;;;14.10;10.43;;;;;;;;;;10370108;28;20473;-65
2023/02/22 01:57:21;;;;;;;13.18;10.25;;;;;;;;;;10368825;28;20117;-66
2023/02/22 02:02:24;;;;;;;13.40;10.23;;;;;;;;;;10369692;28;20113;-64
2023/02/22 02:07:24;;;;;;;15.52;10.82;;;;;;;;;;10367863;28;20488;-67
2023/02/22 02:12:29;;;;;;;12.77;9.80;;;;;;;;;;10367445;28;20037;-65
2023/02/22 02:17:29;;;;;;;15.82;10.50;;;;;;;;;;10366402;28;20029;-66
2023/02/22 02:22:59;;;;;;;11.98;9.43;;;;;;;;;;10368648;28;20030;-65
2023/02/22 02:28:09;;;;;;;14.55;9.73;;;;;;;;;;10353953;28;20027;-67
2023/02/22 02:33:33;;;;;;;12.30;10.18;;;;;;;;;;10359156;28;20035;-65
2023/02/22 02:38:53;;;;;;;14.52;10.77;;;;;;;;;;10382344;28;20459;-65
2023/02/22 02:44:12;;;;;;;13.35;9.35;;;;;;;;;;10366987;28;20033;-71
2023/02/22 02:49:21;;;;;;;12.77;9.50;;;;;;;;;;10367704;28;20018;-67
2023/02/22 02:54:22;;;;;;;;;;;;;;;;;;10367233;28;20030;-68
2023/02/22 02:59:30;;;;;;;12.45;9.18;;;;;;;;;;10382285;28;19917;-70
2023/02/22 03:05:00;;;;;;;13.30;9.15;;;;;;;;;;10355506;28;20405;-65
2023/02/22 03:10:27;;;;;;;12.23;9.65;;;;;;;;;;10367289;28;20386;-70
2023/02/22 03:16:11;;;;;;;11.50;9.73;;;;;;;;;;10365909;28;20036;-70
2023/02/22 03:21:20;;;;;;;12.05;9.45;;;;;;;;;;10358624;28;20239;-66
2023/02/22 03:26:34;;;;;;;12.93;9.52;;;;;;;;;;10366648;28;20038;-65
2023/02/22 03:31:41;;;;;;;12.50;9.00;;;;;;;;;;10356650;28;20393;-66
2023/02/22 03:36:48;;;;;;;13.65;9.52;;;;;;;;;;10364883;28;20457;-66
2023/02/22 03:41:50;;;;;;;10.82;9.05;;;;;;;;;;10359461;28;20546;-64
2023/02/22 03:46:55;;;;;;;12.10;8.93;;;;;;;;;;10363791;28;20075;-66
2023/02/22 03:51:56;;;;;;;12.23;9.05;;;;;;;;;;10366058;28;20029;-66
2023/02/22 03:57:22;;;;;;;12.10;8.82;;;;;;;;;;10369426;28;20064;-65
2023/02/22 04:02:23;;;;;;;14.32;9.45;;;;;;;;;;10371836;28;20038;-66
2023/02/22 04:07:23;;;;;;;10.77;9.27;;;;;;;;;;10374263;28;20022;-65
2023/02/22 04:12:24;;;;;;;11.05;9.27;;;;;;;;;;10373816;28;20026;-64
2023/02/22 04:17:25;;;;;;;11.27;8.48;;;;;;;;;;10367512;28;20025;-69
2023/02/22 04:22:25;;;;;;;9.70;8.35;;;;;;;;;;10373954;28;20048;-65
2023/02/22 04:27:26;;;;;;;11.88;9.30;;;;;;;;;;10372796;28;20098;-66
2023/02/22 04:32:26;;;;;;;12.10;8.90;;;;;;;;;;10373018;28;20393;-67
2023/02/22 04:37:27;;;;;;;10.88;8.93;;;;;;;;;;10372534;28;20049;-66
2023/02/22 04:42:28;;;;;;;10.52;9.15;;;;;;;;;;10372703;28;20022;-66
2023/02/22 04:47:28;;;;;;;9.77;8.43;;;;;;;;;;10372648;28;20045;-65
2023/02/22 04:52:29;;;;;;;13.90;8.65;;;;;;;;;;10363109;28;20318;-69
2023/02/22 04:57:30;;;;;;;10.77;8.63;;;;;;;;;;10371702;28;20030;-66
2023/02/22 05:02:31;;;;;;;10.98;9.02;;;;;;;;;;10372134;28;20037;-66
2023/02/22 05:07:31;;;;;;;9.73;7.78;;;;;;;;;;10371855;28;20501;-64
2023/02/22 05:12:32;;;;;;;11.00;8.82;;;;;;;;;;10371612;28;20461;-65
2023/02/22 05:17:33;;;;;;;10.80;9.05;;;;;;;;;;10371313;28;20385;-70
2023/02/22 05:22:35;;;;;;;10.98;8.68;;;;;;;;;;10371130;28;20037;-66
2023/02/22 05:27:35;;;;;;;10.68;8.40;;;;;;;;;;10370937;28;20068;-65
2023/02/22 05:32:36;;;;;;;11.68;8.95;;;;;;;;;;10371227;28;20030;-67
2023/02/22 05:37:36;;;;;;;9.80;8.32;;;;;;;;;;10370320;28;20410;-65
2023/02/22 05:42:37;;;;;;;12.60;9.05;;;;;;;;;;10370169;28;20022;-66
2023/02/22 05:47:37;;;;;;;12.00;8.88;;;;;;;;;;10369893;28;20037;-67
2023/02/22 05:52:38;;;;;;;11.85;8.43;;;;;;;;;;10361557;28;20084;-65
2023/02/22 05:57:39;;;;;;;13.20;9.32;;;;;;;;;;10369547;28;20040;-66
2023/02/22 06:02:40;;;;;;;11.55;8.13;;;;;;;;;;10367050;28;20386;-66
2023/02/22 06:07:40;;;;;;;9.80;8.38;;;;;;;;;;10368574;28;20048;-65
2023/02/22 06:12:41;;;;;;;10.93;8.18;;;;;;;;;;10368906;28;20058;-66
2023/02/22 06:17:42;;;;;;;9.73;8.25;;;;;;;;;;10368631;28;20107;-66
2023/02/22 06:22:44;;;;;;;11.05;8.50;;;;;;;;;;10367609;28;20033;-68
2023/02/22 06:27:44;;;;;;;12.05;8.45;;;;;;;;;;10368248;28;20113;-70
2023/02/22 06:32:45;;;;;;;15.95;9.68;;;;;;;;;;10368544;28;20030;-62
2023/02/22 06:37:46;;;;;;;16.67;9.30;;;;;;;;;;10366804;28;20041;-64
2023/02/22 06:42:48;;;;;;;18.33;9.45;;;;;;;;;;10365758;28;20030;-63
2023/02/22 06:47:48;;;;;;;16.77;11.10;;;;;;;;;;10364974;28;20474;-65
2023/02/22 06:52:49;;;;;;;14.63;10.98;;;;;;;;;;10361127;28;20030;-62
2023/02/22 06:57:50;;;;;;;18.05;12.15;;;;;;;;;;10365431;28;20021;-63
2023/02/22 07:02:51;;;;;;;20.20;12.77;;;;;;;;;;10350327;28;20084;-61
2023/02/22 07:08:00;;;;;;;21.65;13.75;;;;;;;;;;10363799;28;20026;-61
2023/02/22 07:13:01;;;;;;;26.17;15.83;;;;;;;;;;10365854;28;20026;-61
2023/02/22 07:18:02;;;;;;;24.38;16.48;;;;;;;;;;10366397;28;20033;-61
2023/02/22 07:23:04;;;;;;;28.92;16.85;;;;;;;;;;10362291;28;20486;-62
2023/02/22 07:28:05;;;;;;;27.33;17.38;;;;;;;;;;10365156;28;20397;-62
2023/02/22 07:33:09;;;;;;;25.67;17.48;;;;;;;;;;10366318;28;20026;-61
2023/02/22 07:38:09;;;;;;;31.25;17.25;;;;;;;;;;10366259;28;20045;-62
2023/02/22 07:43:21;;;;;;;32.45;20.33;;;;;;;;;;10366259;28;20029;-61
2023/02/22 07:48:27;;;;;;;29.85;18.77;;;;;;;;;;10360714;28;20040;-61
2023/02/22 07:53:32;;;;;;;29.02;18.92;;;;;;;;;;10364378;28;20532;-61
2023/02/22 07:58:34;;;;;;;30.17;19.85;;;;;;;;;;10365931;28;20516;-62
2023/02/22 08:03:36;;;;;;;32.67;19.05;;;;;;;;;;10365967;28;20022;-62
2023/02/22 08:08:37;;;;;;;31.23;19.85;;;;;;;;;;10365757;28;20562;-61
2023/02/22 08:13:38;;;;;;;31.08;19.90;;;;;;;;;;10365467;28;20080;-61
2023/02/22 08:18:39;;;;;;;30.80;20.13;;;;;;;;;;10365558;28;20161;-65
2023/02/22 08:23:40;;;;;;;34.55;20.35;;;;;;;;;;10365894;28;20033;-65
2023/02/22 08:28:41;;;;;;;31.60;21.30;;;;;;;;;;10372196;28;20381;-65
2023/02/22 08:33:41;;;;;;;29.92;20.17;;;;;;;;;;10372871;28;20120;-65
2023/02/22 08:38:42;;;;;;;31.38;21.23;;;;;;;;;;10372259;28;20049;-65
2023/02/22 08:43:42;;;;;;;34.15;21.08;;;;;;;;;;10372301;28;20405;-65
2023/02/22 08:48:52;;;;;;;31.70;20.50;;;;;;;;;;10364034;28;20030;-64
2023/02/22 08:53:53;;;;;;;32.42;19.73;;;;;;;;;;10371958;28;20324;-65
2023/02/22 08:58:54;;;;;;;32.60;20.50;;;;;;;;;;10372321;28;20399;-62
2023/02/22 09:03:56;;;;;;;31.92;20.77;;;;;;;;;;10371835;28;20038;-61
2023/02/22 09:08:57;;;;;;;29.23;20.38;;;;;;;;;;10371418;28;20042;-61
2023/02/22 09:13:57;;;;;;;30.98;20.75;;;;;;;;;;10371516;28;20465;-61
2023/02/22 09:18:58;;;;;;;29.10;20.58;;;;;;;;;;10371447;28;20436;-65
2023/02/22 09:24:04;;;;;;;28.05;20.15;;;;;;;;;;10371038;28;20026;-62
2023/02/22 09:29:09;;;;;;;30.10;21.13;;;;;;;;;;10370512;28;20030;-61
2023/02/22 09:34:12;;;;;;;30.80;20.98;;;;;;;;;;10370913;28;20022;-61
2023/02/22 09:39:17;;;;;;;24.25;18.80;;;;;;;;;;10369864;28;20058;-62
2023/02/22 09:44:35;;;;;;;30.02;20.88;;;;;;;;;;10369870;28;20022;-61
2023/02/22 09:50:04;;;;;;;29.67;20.60;;;;;;;;;;10355538;28;20017;-62
2023/02/22 09:55:16;;;;;;;25.77;19.65;;;;;;;;;;10369578;28;20017;-61
2023/02/22 10:00:21;;;;;;;29.55;20.20;;;;;;;;;;10369604;28;20144;-62
2023/02/22 10:05:33;;;;;;;26.85;18.67;;;;;;;;;;10367940;28;20057;-61
2023/02/22 10:10:40;;;;;;;28.95;20.02;;;;;;;;;;10368175;28;20116;-60
2023/02/22 10:15:50;;;;;;;28.90;19.90;;;;;;;;;;10369651;28;20021;-61
2023/02/22 10:20:59;;;;;;;28.25;20.30;;;;;;;;;;10369223;28;20053;-61
2023/02/22 10:26:27;;;;;;;26.63;19.55;;;;;;;;;;10368641;28;20394;-61
2023/02/22 10:31:32;;;;;;;25.75;19.58;;;;;;;;;;10367562;28;20061;-62
2023/02/22 10:36:33;;;;;;;27.42;19.17;;;;;;;;;;10398165;23;20056;-63
2023/02/22 10:41:40;;;;;;;25.05;18.35;;;;;;;;;;10409003;28;20064;-63
2023/02/22 10:46:42;;;;;;;26.33;19.73;;;;;;;;;;10407297;28;20041;-63
2023/02/22 10:51:42;;;;;;;27.60;19.70;;;;;;;;;;10400174;28;20444;-62
2023/02/22 10:56:49;;;;;;;26.17;18.02;;;;;;;;;;10409082;28;20026;-63
2023/02/22 11:01:49;;;;;;;26.35;18.77;;;;;;;;;;10408594;28;20101;-62
2023/02/22 11:07:16;;;;;;;24.60;18.70;;;;;;;;;;10408069;28;20040;-63
2023/02/22 11:12:29;;;;;;;23.08;17.13;;;;;;;;;;10407296;28;20025;-63
2023/02/22 11:17:32;;;;;;;25.55;18.00;;;;;;;;;;10406489;28;20055;-63
2023/02/22 11:22:41;;;;;;;22.75;17.20;;;;;;;;;;10407221;28;20025;-63
2023/02/22 11:27:45;;;;;;;23.17;17.23;;;;;;;;;;10406464;28;20041;-63
2023/02/22 11:33:16;;;;;;;24.17;17.27;;;;;;;;;;10407725;28;20029;-63
2023/02/22 11:38:25;;;;;;;25.52;18.50;;;;;;;;;;10405362;28;20087;-62
2023/02/22 11:43:25;;;;;;;;;;;;;;;;;;10408241;28;20627;-62
2023/02/22 11:48:29;;;;;;;25.63;17.03;;;;;;;;;;10405479;28;19974;-62
2023/02/22 11:53:33;;;;;;;25.20;18.10;;;;;;;;;;10405590;28;20463;-63
2023/02/22 11:58:53;;;;;;;22.67;17.52;;;;;;;;;;10397014;28;20022;-62
2023/02/22 12:04:35;;;;;;;21.05;16.13;;;;;;;;;;10413055;28;20473;-63
2023/02/22 12:10:05;;;;;;;24.55;17.52;;;;;;;;;;10414168;28;20021;-62
2023/02/22 12:15:27;;;;;;;24.08;16.48;;;;;;;;;;10414833;28;20076;-63
2023/02/22 12:20:35;;;;;;;23.17;16.30;;;;;;;;;;10416004;28;20013;-60
2023/02/22 12:25:49;;;;;;;23.13;16.70;;;;;;;;;;10405102;28;20120;-59
2023/02/22 12:31:22;;;;;;;23.38;16.40;;;;;;;;;;10413128;28;20083;-60
2023/02/22 12:36:31;;;;;;;23.00;16.17;;;;;;;;;;10406671;28;20065;-60
2023/02/22 12:41:47;;;;;;;24.75;16.33;;;;;;;;;;10413614;28;20034;-60
2023/02/22 12:46:54;;;;;;;28.75;16.67;;;;;;;;;;10412306;28;20307;-59
2023/02/22 12:52:08;;;;;;;28.08;16.52;;;;;;;;;;10400673;28;20280;-60
2023/02/22 12:57:37;;;;;;;22.08;16.33;;;;;;;;;;10409365;28;20048;-60
2023/02/22 13:03:08;;;;;;;22.10;15.57;;;;;;;;;;10402750;28;20366;-60
2023/02/22 13:08:24;;;;;;;23.88;16.05;;;;;;;;;;10369417;28;20124;-60
2023/02/22 13:13:54;;;;;;;21.00;15.15;;;;;;;;;;10409918;28;20447;-60
2023/02/22 13:19:15;;;;;;;24.55;15.77;;;;;;;;;;10388086;28;20412;-63
2023/02/22 13:24:58;;;;;;;20.98;15.57;;;;;;;;;;10410896;28;20018;-63
2023/02/22 13:30:00;;;;;;;22.48;15.85;;;;;;;;;;10409742;28;20128;-60
2023/02/22 13:35:13;;;;;;;20.55;14.82;;;;;;;;;;10411213;28;20517;-60
2023/02/22 13:40:34;;;;;;;20.83;15.05;;;;;;;;;;10410516;28;20028;-60
2023/02/22 13:46:12;;;;;;;21.90;15.27;;;;;;;;;;10407115;28;20038;-61
2023/02/22 13:51:22;;;;;;;21.60;15.57;;;;;;;;;;10407442;28;20112;-63
2023/02/22 13:56:24;;;;;;;22.25;16.08;;;;;;;;;;10408392;28;20029;-61
2023/02/22 14:01:40;;;;;;;22.52;15.70;;;;;;;;;;10408923;28;20489;-61
2023/02/22 14:06:41;;;;;;;20.25;15.65;;;;;;;;;;10405611;28;20573;-61
2023/02/22 14:11:50;;;;;;;22.17;16.10;;;;;;;;;;10408722;28;20513;-61
2023/02/22 14:17:26;;;;;;;19.20;15.40;;;;;;;;;;10408006;28;20029;-63
2023/02/22 14:22:28;;;;;;;21.17;15.98;;;;;;;;;;10405644;28;20046;-62
2023/02/22 14:27:40;;;;;;;21.20;15.02;;;;;;;;;;10408263;28;20068;-62
2023/02/22 14:32:40;;;;;;;20.27;15.65;;;;;;;;;;10405536;28;20357;-59
2023/02/22 14:37:43;;;;;;;21.48;15.52;;;;;;;;;;10406838;28;20052;-59
2023/02/22 14:42:49;;;;;;;20.95;15.63;;;;;;;;;;10406284;28;20393;-60
2023/02/22 14:48:10;;;;;;;21.33;16.05;;;;;;;;;;10406230;28;20100;-60
2023/02/22 14:53:42;;;;;;;20.25;14.70;;;;;;;;;;10417920;28;20121;-59
2023/02/22 14:58:47;;;;;;;24.10;16.17;;;;;;;;;;10407443;28;20029;-60
2023/02/22 15:03:48;;;;;;;21.58;15.05;;;;;;;;;;10405914;28;20041;-60
2023/02/22 15:09:29;;;;;;;21.13;15.48;;;;;;;;;;10407310;28;20409;-59
2023/02/22 15:14:39;;;;;;;21.85;16.05;;;;;;;;;;10397791;28;20037;-60
2023/02/22 15:19:41;;;;;;;21.38;15.00;;;;;;;;;;10407543;28;20455;-60
2023/02/22 15:24:42;;;;;;;23.83;15.65;;;;;;;;;;10407210;28;20017;-60
2023/02/22 15:29:43;;;;;;;19.52;14.80;;;;;;;;;;10407299;28;20029;-59
2023/02/22 15:34:44;;;;;;;20.70;15.45;;;;;;;;;;10405591;28;20124;-60
2023/02/22 15:39:45;;;;;;;19.00;14.88;;;;;;;;;;10407234;28;20055;-60
2023/02/22 15:44:48;;;;;;;17.63;14.38;;;;;;;;;;10407123;28;20049;-60
2023/02/22 15:50:24;;;;;;;19.38;14.63;;;;;;;;;;10397766;28;20026;-60
2023/02/22 15:55:45;;;;;;;20.77;15.18;;;;;;;;;;10403724;28;20059;-59
2023/02/22 16:00:58;;;;;;;19.45;14.50;;;;;;;;;;10395037;28;20075;-59
2023/02/22 16:05:59;;;;;;;20.00;14.80;;;;;;;;;;10406671;28;20420;-59
2023/02/22 16:11:12;;;;;;;21.58;15.15;;;;;;;;;;10406559;28;20068;-60
2023/02/22 16:16:15;;;;;;;25.05;15.70;;;;;;;;;;10405128;28;20100;-60
2023/02/22 16:21:20;;;;;;;22.25;15.35;;;;;;;;;;10405072;28;20061;-60
2023/02/22 16:26:33;;;;;;;20.35;15.55;;;;;;;;;;10402595;28;20216;-59
2023/02/22 16:31:38;;;;;;;22.73;15.90;;;;;;;;;;10403364;28;20333;-59
2023/02/22 16:36:41;;;;;;;22.70;16.33;;;;;;;;;;10403506;28;20038;-59
2023/02/22 16:41:42;;;;;;;23.60;16.92;;;;;;;;;;10403831;28;20104;-59
2023/02/22 16:46:43;;;;;;;22.35;16.67;;;;;;;;;;10407805;28;20033;-59
2023/02/22 16:52:01;;;;;;;24.05;16.08;;;;;;;;;;10409769;28;20030;-59
2023/02/22 16:57:03;;;;;;;20.87;15.23;;;;;;;;;;10408199;28;20033;-59
2023/02/22 17:02:06;;;;;;;24.13;15.85;;;;;;;;;;10412820;28;20056;-59
2023/02/22 17:07:08;;;;;;;21.70;15.23;;;;;;;;;;10412145;28;20056;-59
2023/02/22 17:12:09;;;;;;;21.40;14.80;;;;;;;;;;10412243;28;20483;-59
2023/02/22 17:17:11;;;;;;;20.05;14.43;;;;;;;;;;10410608;28;20022;-59
2023/02/22 17:22:21;;;;;;;20.65;13.82;;;;;;;;;;10411904;28;20025;-59
2023/02/22 17:27:21;;;;;;;21.92;14.13;;;;;;;;;;10411777;28;20437;-59
2023/02/22 17:32:22;;;;;;;24.17;14.00;;;;;;;;;;10410418;28;20022;-59
2023/02/22 17:37:24;;;;;;;19.63;14.13;;;;;;;;;;10411078;28;20041;-59
2023/02/22 17:42:25;;;;;;;21.85;14.52;;;;;;;;;;10411014;28;20025;-59
2023/02/22 17:47:25;;;;;;;19.52;12.77;;;;;;;;;;10410489;28;20021;-59
2023/02/22 17:52:28;;;;;;;20.80;13.27;;;;;;;;;;10401288;28;20033;-60
2023/02/22 17:57:29;;;;;;;17.65;13.18;;;;;;;;;;10405147;28;20037;-59
2023/02/22 18:02:33;;;;;;;17.08;13.35;;;;;;;;;;10403213;28;20037;-59
2023/02/22 18:07:33;;;;;;;19.33;13.30;;;;;;;;;;10402329;28;20116;-59
2023/02/22 18:12:35;;;;;;;19.05;13.93;;;;;;;;;;10409615;28;20380;-59
2023/02/22 18:17:36;;;;;;;21.05;12.80;;;;;;;;;;10419769;28;20038;-59
2023/02/22 18:22:41;;;;;;;25.75;13.43;;;;;;;;;;10409280;28;20485;-59
2023/02/22 18:27:42;;;;;;;21.58;12.77;;;;;;;;;;10405402;28;20029;-59
2023/02/22 18:32:44;;;;;;;21.35;11.82;;;;;;;;;;10409154;28;20033;-59
2023/02/22 18:37:45;;;;;;;20.70;12.27;;;;;;;;;;10408423;28;20220;-60
2023/02/22 18:42:46;;;;;;;17.52;12.20;;;;;;;;;;10408570;28;20214;-59
2023/02/22 18:47:47;;;;;;;27.42;12.15;;;;;;;;;;10405048;28;20029;-59
2023/02/22 18:52:47;;;;;;;16.42;12.15;;;;;;;;;;10399356;28;20018;-59
2023/02/22 18:57:51;;;;;;;18.20;11.77;;;;;;;;;;10405152;28;20036;-59
2023/02/22 19:02:52;;;;;;;18.52;11.80;;;;;;;;;;10396439;28;20385;-59
2023/02/22 19:07:53;;;;;;;18.13;11.38;;;;;;;;;;10402464;28;20036;-59
2023/02/22 19:12:53;;;;;;;16.08;11.88;;;;;;;;;;10406337;28;20033;-59
2023/02/22 19:17:54;;;;;;;15.93;11.55;;;;;;;;;;10405347;28;20091;-59
2023/02/22 19:22:55;;;;;;;17.60;11.73;;;;;;;;;;10406336;28;20029;-62
2023/02/22 19:27:58;;;;;;;16.45;10.45;;;;;;;;;;10406925;28;20037;-59
2023/02/22 19:33:01;;;;;;;16.73;11.20;;;;;;;;;;10406473;28;20033;-59
2023/02/22 19:38:02;;;;;;;14.20;11.15;;;;;;;;;;10405350;28;20145;-59
2023/02/22 19:43:02;;;;;;;14.35;11.20;;;;;;;;;;10406484;28;20034;-59
2023/02/22 19:48:03;;;;;;;14.57;10.60;;;;;;;;;;10402246;28;20041;-59
2023/02/22 19:53:04;;;;;;;15.63;10.95;;;;;;;;;;10401895;28;20072;-59
2023/02/22 19:58:05;;;;;;;16.95;11.30;;;;;;;;;;10404118;28;20576;-59
2023/02/22 20:03:07;;;;;;;15.38;10.68;;;;;;;;;;10406488;28;20033;-58
2023/02/22 20:08:08;;;;;;;14.93;10.88;;;;;;;;;;10405299;28;20029;-58
2023/02/22 20:13:10;;;;;;;18.80;11.05;;;;;;;;;;10393036;28;20033;-59
2023/02/22 20:18:11;;;;;;;16.60;10.63;;;;;;;;;;10393282;28;20025;-59
2023/02/22 20:23:11;;;;;;;14.85;11.23;;;;;;;;;;10406863;28;20029;-56
2023/02/22 20:28:12;;;;;;;15.40;10.77;;;;;;;;;;10410519;28;20036;-57
2023/02/22 20:33:13;;;;;;;15.45;10.68;;;;;;;;;;10411755;28;20045;-56
2023/02/22 20:38:14;;;;;;;15.45;10.45;;;;;;;;;;10413158;28;20040;-56
2023/02/22 20:43:14;;;;;;;16.52;11.05;;;;;;;;;;10413463;28;20041;-57
2023/02/22 20:48:15;;;;;;;14.57;10.98;;;;;;;;;;10406336;28;20029;-56
2023/02/22 20:53:15;;;;;;;12.95;10.88;;;;;;;;;;10413123;28;20408;-56
2023/02/22 20:58:20;;;;;;;13.40;10.68;;;;;;;;;;10401012;28;20036;-57
2023/02/22 21:03:20;;;;;;;13.38;10.52;;;;;;;;;;10407142;28;20013;-57
2023/02/22 21:08:21;;;;;;;13.82;10.50;;;;;;;;;;10410494;28;20029;-57
2023/02/22 21:13:22;;;;;;;16.35;11.05;;;;;;;;;;10407547;28;20026;-57
2023/02/22 21:18:22;;;;;;;16.52;11.02;;;;;;;;;;10411747;28;20091;-56
2023/02/22 21:23:23;;;;;;;22.67;11.98;;;;;;;;;;10411515;28;20022;-61
2023/02/22 21:28:23;;;;;;;23.98;12.77;;;;;;;;;;10404434;28;20040;-60
2023/02/22 21:33:24;;;;;;;24.48;12.13;;;;;;;;;;10407851;28;20025;-60
2023/02/22 21:38:25;;;;;;;21.63;11.65;;;;;;;;;;10411388;28;20049;-57
2023/02/22 21:43:26;;;;;;;25.08;11.32;;;;;;;;;;10401264;28;20153;-57
2023/02/22 21:48:26;;;;;;;21.55;10.98;;;;;;;;;;10406697;28;20425;-57
2023/02/22 21:53:27;;;;;;;29.15;11.38;;;;;;;;;;10404686;28;20217;-57
2023/02/22 21:58:29;;;;;;;21.67;11.43;;;;;;;;;;10406195;28;20042;-58
2023/02/22 22:03:30;;;;;;;20.13;11.77;;;;;;;;;;10404042;28;20032;-58
2023/02/22 22:08:31;;;;;;;17.13;10.82;;;;;;;;;;10401421;28;20033;-58
2023/02/22 22:13:31;;;;;;;21.30;10.63;;;;;;;;;;10397851;28;20036;-56
2023/02/22 22:18:34;;;;;;;16.23;10.93;;;;;;;;;;10409070;28;20389;-56
2023/02/22 22:23:38;;;;;;;20.45;10.98;;;;;;;;;;10408310;28;20072;-57
2023/02/22 22:28:41;;;;;;;19.83;10.85;;;;;;;;;;10407310;28;20068;-56
2023/02/22 22:33:43;;;;;;;17.15;10.63;;;;;;;;;;10406419;28;20023;-56
2023/02/22 22:38:45;;;;;;;20.17;10.13;;;;;;;;;;10383637;28;20109;-56
2023/02/22 22:43:47;;;;;;;17.73;10.35;;;;;;;;;;10390016;28;20382;-57
2023/02/22 22:48:55;;;;;;;18.15;10.20;;;;;;;;;;10399404;28;20216;-57
2023/02/22 22:53:58;;;;;;;17.40;9.77;;;;;;;;;;10408659;28;20307;-58
2023/02/22 22:58:58;;;;;;;16.58;9.70;;;;;;;;;;10407921;28;20029;-57
2023/02/22 23:04:03;;;;;;;18.33;10.23;;;;;;;;;;10400909;28;20381;-57
2023/02/22 23:09:10;;;;;;;24.20;10.45;;;;;;;;;;10407659;28;20104;-57
2023/02/22 23:14:14;;;;;;;22.48;10.65;;;;;;;;;;10407853;28;20104;-56
2023/02/22 23:19:15;;;;;;;15.30;9.40;;;;;;;;;;10407212;28;20071;-56
2023/02/22 23:24:19;;;;;;;14.80;9.57;;;;;;;;;;10407370;28;20099;-59
2023/02/22 23:29:21;;;;;;;17.70;10.20;;;;;;;;;;10407335;28;20017;-59
2023/02/22 23:34:22;;;;;;;13.38;9.15;;;;;;;;;;10407728;28;20029;-59
2023/02/22 23:39:24;;;;;;;14.35;9.60;;;;;;;;;;10407802;28;20029;-59
2023/02/22 23:44:26;;;;;;;13.52;9.48;;;;;;;;;;10407580;28;20056;-59
2023/02/22 23:49:37;;;;;;;16.52;9.60;;;;;;;;;;10397413;28;20034;-59
2023/02/22 23:54:42;;;;;;;15.77;9.05;;;;;;;;;;10408128;28;20073;-58
2023/02/22 23:59:44;;;;;;;16.55;9.30;;;;;;;;;;10415272;28;20472;-58
